createdAt,value
2019-02-09T00:02:09.397Z,15.40
2019-02-09T00:04:41.112Z,16.10
2019-02-09T00:07:11.863Z,15.83
2019-02-09T00:09:41.700Z,17.70
2019-02-09T00:12:13.972Z,17.00
2019-02-09T00:14:46.094Z,17.80
2019-02-09T00:17:16.513Z,18.07
2019-02-09T00:19:47.347Z,17.67
2019-02-09T00:22:18.088Z,17.63
2019-02-09T00:24:47.944Z,16.20
2019-02-09T00:27:20.019Z,16.90
2019-02-09T00:29:51.369Z,17.63
2019-02-09T00:32:21.142Z,17.70
2019-02-09T00:34:51.004Z,17.20
2019-02-09T00:37:20.722Z,16.23
2019-02-09T00:39:50.923Z,16.37
2019-02-09T00:42:20.827Z,16.37
2019-02-09T00:44:52.007Z,16.20
2019-02-09T00:47:21.983Z,16.37
2019-02-09T00:49:52.391Z,16.10
2019-02-09T00:52:23.392Z,15.47
2019-02-09T00:54:54.196Z,16.30
2019-02-09T00:57:24.624Z,17.93
2019-02-09T00:59:54.706Z,15.90
2019-02-09T01:02:25.562Z,17.00
2019-02-09T01:04:57.162Z,15.30
2019-02-09T01:07:26.551Z,15.40
2019-02-09T01:09:56.530Z,15.50
2019-02-09T01:12:27.451Z,16.33
2019-02-09T01:14:57.749Z,15.97
2019-02-09T01:17:29.240Z,16.00
2019-02-09T01:19:59.169Z,15.90
2019-02-09T01:22:30.080Z,15.07
2019-02-09T01:25:00.969Z,14.47
2019-02-09T01:27:31.634Z,14.90
2019-02-09T01:30:02.620Z,14.67
2019-02-09T01:32:33.842Z,15.23
2019-02-09T01:35:03.374Z,15.07
2019-02-09T01:37:38.316Z,15.47
2019-02-09T01:40:09.735Z,15.60
2019-02-09T01:42:41.552Z,15.43
2019-02-09T01:45:17.494Z,15.33
2019-02-09T01:47:47.724Z,15.20
2019-02-09T01:50:18.892Z,14.37
2019-02-09T01:52:49.322Z,14.63
2019-02-09T01:55:19.977Z,15.03
2019-02-09T01:57:50.959Z,14.97
2019-02-09T02:00:24.912Z,15.30
2019-02-09T02:02:54.329Z,15.83
2019-02-09T02:05:25.004Z,16.67
2019-02-09T02:07:55.288Z,16.10
2019-02-09T02:10:29.257Z,17.97
2019-02-09T02:12:59.405Z,17.50
2019-02-09T02:15:29.445Z,17.63
2019-02-09T02:17:59.290Z,18.43
2019-02-09T02:20:30.291Z,16.80
2019-02-09T02:23:01.619Z,16.00
2019-02-09T02:25:32.234Z,16.30
2019-02-09T02:28:02.064Z,16.80
2019-02-09T02:30:35.412Z,15.43
2019-02-09T02:33:07.323Z,15.77
2019-02-09T02:35:38.064Z,16.17
2019-02-09T02:38:09.614Z,16.63
2019-02-09T02:40:40.547Z,15.80
2019-02-09T02:43:10.770Z,17.70
2019-02-09T02:45:40.439Z,18.03
2019-02-09T02:48:10.903Z,16.03
2019-02-09T02:50:40.123Z,16.07
2019-02-09T02:53:10.861Z,15.73
2019-02-09T02:55:40.062Z,15.90
2019-02-09T02:58:12.127Z,16.27
2019-02-09T03:00:43.488Z,15.10
2019-02-09T03:03:13.077Z,14.97
2019-02-09T03:05:42.199Z,15.73
2019-02-09T03:08:11.512Z,15.87
2019-02-09T03:10:41.976Z,16.27
2019-02-09T03:13:13.271Z,15.60
2019-02-09T03:15:43.275Z,16.67
2019-02-09T03:18:13.287Z,15.43
2019-02-09T03:20:42.556Z,16.37
2019-02-09T03:23:12.674Z,17.23
2019-02-09T03:25:42.672Z,16.80
2019-02-09T03:28:12.316Z,17.97
2019-02-09T03:30:47.459Z,17.40
2019-02-09T03:33:13.604Z,19.63
2019-02-09T03:35:44.282Z,17.87
2019-02-09T03:38:14.211Z,16.97
2019-02-09T03:40:46.085Z,17.43
2019-02-09T03:43:16.671Z,16.10
2019-02-09T03:45:47.007Z,17.27
2019-02-09T03:48:17.350Z,17.83
2019-02-09T03:50:47.732Z,30.33
2019-02-09T03:53:16.814Z,21.23
2019-02-09T03:55:46.957Z,16.57
2019-02-09T03:58:17.840Z,16.67
2019-02-09T04:00:54.929Z,15.53
2019-02-09T04:03:19.909Z,16.77
2019-02-09T04:05:49.734Z,16.10
2019-02-09T04:08:20.326Z,16.40
2019-02-09T04:10:50.592Z,16.13
2019-02-09T04:13:22.223Z,16.63
2019-02-09T04:15:53.329Z,18.07
2019-02-09T04:18:25.703Z,17.37
2019-02-09T04:20:56.242Z,17.83
2019-02-09T04:23:26.695Z,17.53
2019-02-09T04:25:57.044Z,17.60
2019-02-09T04:28:25.759Z,17.63
2019-02-09T04:31:05.579Z,19.33
2019-02-09T04:33:28.214Z,19.87
2019-02-09T04:35:58.184Z,20.37
2019-02-09T04:38:29.620Z,20.57
2019-02-09T04:41:01.042Z,19.20
2019-02-09T04:43:30.157Z,19.37
2019-02-09T04:46:01.612Z,19.03
2019-02-09T04:48:32.374Z,16.97
2019-02-09T04:51:02.297Z,19.13
2019-02-09T04:53:33.189Z,18.13
2019-02-09T04:56:02.399Z,16.87
2019-02-09T04:58:32.512Z,18.50
2019-02-09T05:01:02.539Z,18.47
2019-02-09T05:03:34.647Z,19.33
2019-02-09T05:06:04.061Z,19.40
2019-02-09T05:08:34.399Z,18.60
2019-02-09T05:11:03.987Z,19.37
2019-02-09T05:13:34.659Z,17.87
2019-02-09T05:16:05.644Z,18.00
2019-02-09T05:18:36.066Z,16.77
2019-02-09T05:21:05.525Z,15.83
2019-02-09T05:23:36.123Z,17.23
2019-02-09T05:26:05.419Z,16.10
2019-02-09T05:28:34.901Z,15.93
2019-02-09T05:31:05.212Z,15.33
2019-02-09T05:33:37.099Z,16.30
2019-02-09T05:36:08.747Z,15.30
2019-02-09T05:38:40.841Z,15.57
2019-02-09T05:41:11.928Z,17.37
2019-02-09T05:43:42.065Z,17.77
2019-02-09T05:46:13.037Z,18.67
2019-02-09T05:48:43.052Z,19.17
2019-02-09T05:51:12.982Z,19.77
2019-02-09T05:53:42.658Z,19.30
2019-02-09T05:56:12.965Z,19.43
2019-02-09T05:58:42.857Z,19.50
2019-02-09T06:01:13.058Z,20.50
2019-02-09T06:03:43.809Z,19.47
2019-02-09T06:06:13.686Z,17.03
2019-02-09T06:08:43.294Z,16.23
2019-02-09T06:11:11.965Z,17.43
2019-02-09T06:13:43.187Z,18.47
2019-02-09T06:16:13.595Z,19.13
2019-02-09T06:18:42.393Z,18.83
2019-02-09T06:21:13.060Z,19.47
2019-02-09T06:23:43.331Z,17.00
2019-02-09T06:26:13.015Z,18.13
2019-02-09T06:28:42.673Z,23.60
2019-02-09T06:31:11.962Z,19.10
2019-02-09T06:33:41.339Z,18.60
2019-02-09T06:36:12.459Z,19.73
2019-02-09T06:38:42.342Z,17.63
2019-02-09T06:41:12.702Z,18.43
2019-02-09T06:43:42.894Z,17.60
2019-02-09T06:46:14.102Z,18.13
2019-02-09T06:48:44.327Z,18.60
2019-02-09T06:51:14.902Z,16.73
2019-02-09T06:53:44.344Z,16.40
2019-02-09T06:56:14.604Z,15.67
2019-02-09T06:58:45.532Z,14.83
2019-02-09T07:01:15.779Z,14.67
2019-02-09T07:03:46.585Z,14.27
2019-02-09T07:06:15.848Z,13.50
2019-02-09T07:08:46.902Z,13.10
2019-02-09T07:11:17.557Z,14.30
2019-02-09T07:13:48.667Z,17.07
2019-02-09T07:16:18.264Z,18.87
2019-02-09T07:18:49.544Z,14.33
2019-02-09T07:21:20.673Z,13.50
2019-02-09T07:23:50.001Z,14.10
2019-02-09T07:26:21.027Z,14.30
2019-02-09T07:28:50.509Z,15.60
2019-02-09T07:31:21.332Z,15.90
2019-02-09T07:33:54.613Z,21.10
2019-02-09T07:36:24.145Z,17.70
2019-02-09T07:38:54.391Z,16.67
2019-02-09T07:41:25.229Z,17.63
2019-02-09T07:43:54.672Z,16.63
2019-02-09T07:46:23.851Z,16.13
2019-02-09T07:48:53.738Z,16.00
2019-02-09T07:51:29.471Z,18.00
2019-02-09T07:54:00.411Z,16.73
2019-02-09T07:56:29.472Z,17.43
2019-02-09T07:59:00.050Z,18.77
2019-02-09T08:01:29.562Z,16.83
2019-02-09T08:03:59.889Z,16.00
2019-02-09T08:06:29.751Z,16.47
2019-02-09T08:08:59.865Z,15.80
2019-02-09T08:11:30.026Z,17.30
2019-02-09T08:14:00.902Z,15.47
2019-02-09T08:16:29.891Z,16.33
2019-02-09T08:19:01.244Z,15.00
2019-02-09T08:21:31.322Z,14.43
2019-02-09T08:24:01.132Z,15.50
2019-02-09T08:26:31.996Z,16.10
2019-02-09T08:29:02.226Z,16.63
2019-02-09T08:31:31.947Z,17.67
2019-02-09T08:34:02.218Z,19.43
2019-02-09T08:36:32.378Z,20.67
2019-02-09T08:39:01.603Z,16.47
2019-02-09T08:41:33.033Z,15.67
2019-02-09T08:44:04.142Z,14.83
2019-02-09T08:46:34.485Z,15.00
2019-02-09T08:49:04.181Z,14.53
2019-02-09T08:51:34.641Z,14.37
2019-02-09T08:54:07.442Z,16.07
2019-02-09T08:56:37.533Z,16.30
2019-02-09T08:59:07.622Z,16.27
2019-02-09T09:01:37.901Z,16.27
2019-02-09T09:04:07.254Z,19.83
2019-02-09T09:06:37.228Z,17.93
2019-02-09T09:09:11.514Z,16.80
2019-02-09T09:11:43.062Z,16.90
2019-02-09T09:14:14.634Z,16.63
2019-02-09T09:16:44.824Z,17.63
2019-02-09T09:19:15.333Z,16.77
2019-02-09T09:21:45.292Z,16.13
2019-02-09T09:24:14.689Z,16.73
2019-02-09T09:26:45.625Z,16.50
2019-02-09T09:29:17.442Z,16.43
2019-02-09T09:31:48.967Z,17.30
2019-02-09T09:34:18.429Z,17.97
2019-02-09T09:36:47.967Z,18.50
2019-02-09T09:39:20.217Z,17.73
2019-02-09T09:41:50.599Z,18.27
2019-02-09T09:44:22.150Z,18.23
2019-02-09T09:46:52.410Z,25.47
2019-02-09T09:49:23.014Z,18.60
2019-02-09T09:51:53.616Z,22.83
2019-02-09T09:54:23.207Z,26.40
2019-02-09T09:56:54.123Z,21.10
2019-02-09T09:59:23.772Z,19.70
2019-02-09T10:01:54.557Z,19.03
2019-02-09T10:04:24.794Z,19.37
2019-02-09T10:06:54.540Z,22.10
2019-02-09T10:09:24.810Z,19.70
2019-02-09T10:11:55.510Z,23.27
2019-02-09T10:14:26.937Z,21.60
2019-02-09T10:16:57.727Z,21.60
2019-02-09T10:19:28.701Z,21.83
2019-02-09T10:21:58.019Z,25.17
2019-02-09T10:24:28.319Z,23.27
2019-02-09T10:26:57.781Z,19.00
2019-02-09T10:29:27.760Z,20.53
2019-02-09T10:31:59.167Z,23.80
2019-02-09T10:34:29.304Z,36.90
2019-02-09T10:36:58.147Z,19.47
2019-02-09T10:39:28.714Z,23.80
2019-02-09T10:41:58.097Z,20.83
2019-02-09T10:44:29.114Z,20.27
2019-02-09T10:47:01.396Z,16.93
2019-02-09T10:49:31.687Z,17.77
2019-02-09T10:52:02.582Z,17.90
2019-02-09T10:54:35.323Z,18.63
2019-02-09T10:57:05.642Z,18.07
2019-02-09T10:59:35.202Z,21.03
2019-02-09T11:02:05.095Z,19.47
2019-02-09T11:04:35.263Z,20.07
2019-02-09T11:07:06.974Z,19.00
2019-02-09T11:09:38.704Z,19.73
2019-02-09T11:12:08.592Z,19.45
2019-02-09T11:14:38.594Z,18.67
2019-02-09T11:17:07.834Z,26.10
2019-02-09T11:19:38.294Z,22.02
2019-02-09T11:22:07.942Z,21.12
2019-02-09T11:24:37.572Z,16.90
2019-02-09T11:27:07.520Z,17.67
2019-02-09T11:29:37.878Z,15.98
2019-02-09T11:32:11.663Z,16.87
2019-02-09T11:34:43.904Z,16.13
2019-02-09T11:37:13.474Z,15.73
2019-02-09T11:39:43.527Z,19.20
2019-02-09T11:42:15.004Z,21.00
2019-02-09T11:44:44.550Z,46.63
2019-02-09T11:47:16.894Z,29.90
2019-02-09T11:49:48.122Z,18.17
2019-02-09T11:52:18.155Z,18.20
2019-02-09T11:54:48.548Z,15.63
2019-02-09T11:57:20.297Z,17.02
2019-02-09T11:59:50.763Z,15.85
2019-02-09T12:02:21.550Z,18.20
2019-02-09T12:04:51.074Z,12.95
2019-02-09T12:07:20.824Z,13.62
2019-02-09T12:09:50.070Z,13.35
2019-02-09T12:12:20.674Z,10.88
2019-02-09T12:14:51.724Z,20.05
2019-02-09T12:17:22.112Z,9.40
2019-02-09T12:19:53.009Z,8.70
2019-02-09T12:22:23.027Z,10.10
2019-02-09T12:24:53.997Z,10.32
2019-02-09T12:27:24.416Z,10.93
2019-02-09T12:29:56.621Z,14.87
2019-02-09T12:32:28.457Z,11.73
2019-02-09T12:34:58.467Z,13.85
2019-02-09T12:37:29.151Z,13.53
2019-02-09T12:39:58.137Z,14.85
2019-02-09T12:42:28.342Z,12.90
2019-02-09T12:44:58.024Z,16.20
2019-02-09T12:47:27.882Z,13.53
2019-02-09T12:49:59.197Z,15.30
2019-02-09T12:52:28.970Z,12.63
2019-02-09T12:54:58.725Z,13.95
2019-02-09T12:57:30.632Z,17.98
2019-02-09T13:00:02.745Z,13.95
2019-02-09T13:02:32.292Z,13.60
2019-02-09T13:05:04.749Z,14.53
2019-02-09T13:07:34.983Z,12.10
2019-02-09T13:10:06.645Z,10.57
2019-02-09T13:12:37.013Z,11.63
2019-02-09T13:15:11.348Z,11.93
2019-02-09T13:17:42.276Z,9.60
2019-02-09T13:20:16.537Z,11.27
2019-02-09T13:22:48.294Z,11.50
2019-02-09T13:25:19.846Z,15.72
2019-02-09T13:27:50.370Z,14.47
2019-02-09T13:30:25.964Z,11.97
2019-02-09T13:32:56.192Z,18.97
2019-02-09T13:35:28.537Z,15.03
2019-02-09T13:37:58.197Z,17.12
2019-02-09T13:40:29.304Z,46.33
2019-02-09T13:42:59.512Z,413.17
2019-02-09T13:45:33.917Z,835.67
2019-02-09T13:48:04.429Z,309.17
2019-02-09T13:50:35.522Z,77.67
2019-02-09T13:53:08.658Z,25.57
2019-02-09T13:55:39.686Z,261.60
2019-02-09T13:58:09.780Z,127.53
2019-02-09T14:00:44.732Z,52.63
2019-02-09T14:03:14.598Z,11.10
2019-02-09T14:05:46.192Z,9.60
2019-02-09T14:08:15.340Z,8.97
2019-02-09T14:10:48.013Z,9.63
2019-02-09T14:13:17.876Z,9.33
2019-02-09T14:15:49.873Z,8.85
2019-02-09T14:18:20.230Z,9.40
2019-02-09T14:20:50.202Z,9.83
2019-02-09T14:23:20.675Z,9.08
2019-02-09T14:25:51.129Z,32.17
2019-02-09T14:28:25.484Z,46.40
2019-02-09T14:30:55.686Z,72.78
2019-02-09T14:33:26.297Z,19.43
2019-02-09T14:36:00.375Z,10.80
2019-02-09T14:38:31.384Z,119.90
2019-02-09T14:41:02.190Z,123.63
2019-02-09T14:43:33.166Z,21.27
2019-02-09T14:46:04.270Z,127.87
2019-02-09T14:48:35.204Z,17.07
2019-02-09T14:51:07.145Z,27.17
2019-02-09T14:53:39.717Z,24.63
2019-02-09T14:56:08.963Z,30.83
2019-02-09T14:58:38.816Z,15.77
2019-02-09T15:01:08.862Z,11.47
2019-02-09T15:03:39.439Z,11.90
2019-02-09T15:06:12.223Z,16.40
2019-02-09T15:08:41.770Z,43.70
2019-02-09T15:11:12.534Z,27.23
2019-02-09T15:13:44.838Z,11.30
2019-02-09T15:16:37.450Z,11.07
2019-02-09T15:19:10.831Z,8.60
2019-02-09T15:21:41.291Z,10.07
2019-02-09T15:24:11.589Z,8.00
2019-02-09T15:26:41.256Z,8.10
2019-02-09T15:29:11.315Z,8.33
2019-02-09T15:31:41.447Z,8.40
2019-02-09T15:34:11.509Z,10.30
2019-02-09T15:36:42.897Z,12.43
2019-02-09T15:39:13.674Z,7.83
2019-02-09T15:41:43.342Z,7.53
2019-02-09T15:44:13.672Z,6.53
2019-02-09T15:46:44.615Z,6.43
2019-02-09T15:49:15.139Z,11.37
2019-02-09T15:51:44.339Z,10.70
2019-02-09T15:54:15.625Z,25.23
2019-02-09T15:56:49.372Z,5.97
2019-02-09T15:59:21.475Z,5.47
2019-02-09T16:01:51.248Z,4.63
2019-02-09T16:04:20.100Z,8.33
2019-02-09T16:06:50.727Z,4.97
2019-02-09T16:09:21.063Z,6.53
2019-02-09T16:11:51.057Z,9.60
2019-02-09T16:14:22.267Z,8.50
2019-02-09T16:16:53.343Z,6.50
2019-02-09T16:19:22.587Z,8.17
2019-02-09T16:21:52.947Z,6.33
2019-02-09T16:24:22.936Z,6.10
2019-02-09T16:26:52.926Z,6.17
2019-02-09T16:29:22.586Z,5.27
2019-02-09T16:31:53.932Z,5.67
2019-02-09T16:34:25.481Z,5.00
2019-02-09T16:36:56.407Z,4.30
2019-02-09T16:39:26.457Z,4.87
2019-02-09T16:42:01.543Z,4.70
2019-02-09T16:44:31.793Z,5.00
2019-02-09T16:47:04.459Z,4.43
2019-02-09T16:49:36.734Z,6.13
2019-02-09T16:52:07.527Z,5.57
2019-02-09T16:54:40.439Z,6.20
2019-02-09T16:57:12.257Z,6.40
2019-02-09T16:59:43.847Z,5.53
2019-02-09T17:02:18.064Z,5.77
2019-02-09T17:04:49.334Z,7.13
2019-02-09T17:07:19.913Z,6.83
2019-02-09T17:09:49.955Z,7.00
2019-02-09T17:12:20.018Z,6.77
2019-02-09T17:14:49.995Z,8.30
2019-02-09T17:17:22.892Z,6.97
2019-02-09T17:19:53.303Z,10.17
2019-02-09T17:22:23.415Z,6.50
2019-02-09T17:24:53.373Z,7.10
2019-02-09T17:27:26.850Z,6.30
2019-02-09T17:29:57.070Z,6.23
2019-02-09T17:32:29.777Z,7.90
2019-02-09T17:35:00.564Z,7.13
2019-02-09T17:37:31.854Z,7.27
2019-02-09T17:40:07.403Z,7.30
2019-02-09T17:42:38.742Z,7.33
2019-02-09T17:45:16.047Z,8.50
2019-02-09T17:47:48.920Z,20.63
2019-02-09T17:50:18.939Z,17.40
2019-02-09T17:52:49.072Z,18.07
2019-02-09T17:55:21.459Z,16.80
2019-02-09T17:57:52.682Z,15.53
2019-02-09T18:00:32.644Z,22.67
2019-02-09T18:03:02.738Z,26.23
2019-02-09T18:05:32.832Z,22.13
2019-02-09T18:08:03.157Z,36.07
2019-02-09T18:10:32.735Z,18.47
2019-02-09T18:13:04.194Z,18.47
2019-02-09T18:15:35.119Z,13.97
2019-02-09T18:18:06.920Z,10.60
2019-02-09T18:20:39.168Z,7.77
2019-02-09T18:23:09.182Z,8.00
2019-02-09T18:25:39.115Z,8.70
2019-02-09T18:28:10.948Z,9.70
2019-02-09T18:30:41.097Z,9.73
2019-02-09T18:33:11.891Z,10.90
2019-02-09T18:35:42.275Z,9.07
2019-02-09T18:38:13.227Z,12.70
2019-02-09T18:40:44.610Z,9.20
2019-02-09T18:43:15.488Z,9.47
2019-02-09T18:45:45.556Z,11.53
2019-02-09T18:48:15.672Z,11.13
2019-02-09T18:50:47.211Z,17.90
2019-02-09T18:53:16.909Z,16.37
2019-02-09T18:55:49.363Z,14.73
2019-02-09T18:58:20.287Z,9.30
2019-02-09T19:00:50.822Z,17.70
2019-02-09T19:03:21.617Z,23.70
2019-02-09T19:05:51.235Z,48.47
2019-02-09T19:08:21.086Z,16.33
2019-02-09T19:10:51.170Z,24.70
2019-02-09T19:13:22.250Z,25.10
2019-02-09T19:15:54.617Z,17.90
2019-02-09T19:18:25.176Z,10.63
2019-02-09T19:20:58.350Z,11.70
2019-02-09T19:23:28.538Z,10.03
2019-02-09T19:25:59.731Z,9.23
2019-02-09T19:28:30.689Z,7.13
2019-02-09T19:31:02.347Z,7.20
2019-02-09T19:33:33.112Z,6.93
2019-02-09T19:36:05.234Z,6.53
2019-02-09T19:38:36.686Z,6.63
2019-02-09T19:41:07.598Z,6.97
2019-02-09T19:43:38.946Z,6.60
2019-02-09T19:46:13.147Z,7.83
2019-02-09T19:48:45.709Z,9.00
2019-02-09T19:51:16.030Z,7.40
2019-02-09T19:53:47.081Z,9.33
2019-02-09T19:56:20.951Z,14.87
2019-02-09T19:58:52.811Z,8.77
2019-02-09T20:01:24.914Z,9.17
2019-02-09T20:03:57.945Z,9.83
2019-02-09T20:06:28.526Z,7.10
2019-02-09T20:09:00.764Z,7.00
2019-02-09T20:11:36.915Z,9.30
2019-02-09T20:14:09.287Z,6.57
2019-02-09T20:16:41.573Z,6.23
2019-02-09T20:19:17.747Z,6.87
2019-02-09T20:21:49.970Z,7.63
2019-02-09T20:24:22.049Z,9.13
2019-02-09T20:26:56.298Z,10.37
2019-02-09T20:29:28.565Z,8.70
2019-02-09T20:32:00.287Z,9.10
2019-02-09T20:34:34.985Z,9.07
2019-02-09T20:37:13.797Z,28.73
2019-02-09T20:39:50.400Z,6.97
2019-02-09T20:42:24.104Z,7.47
2019-02-09T20:44:54.845Z,6.30
2019-02-09T20:47:32.037Z,22.83
2019-02-09T20:50:03.235Z,38.77
2019-02-09T20:52:37.422Z,8.67
2019-02-09T20:55:09.779Z,7.73
2019-02-09T20:57:42.591Z,29.47
2019-02-09T21:00:18.274Z,16.37
2019-02-09T21:02:50.756Z,7.87
2019-02-09T21:05:26.684Z,6.87
2019-02-09T21:07:58.646Z,7.00
2019-02-09T21:10:32.187Z,6.67
2019-02-09T21:13:04.173Z,6.97
2019-02-09T21:15:37.435Z,8.00
2019-02-09T21:18:08.416Z,7.73
2019-02-09T21:20:41.646Z,7.70
2019-02-09T21:23:12.494Z,8.03
2019-02-09T21:25:45.073Z,8.07
2019-02-09T21:28:17.215Z,8.13
2019-02-09T21:30:47.671Z,7.77
2019-02-09T21:33:19.720Z,7.17
2019-02-09T21:35:51.109Z,6.50
2019-02-09T21:38:20.164Z,6.50
2019-02-09T21:40:51.186Z,7.23
2019-02-09T21:43:22.623Z,7.60
2019-02-09T21:45:53.382Z,8.63
2019-02-09T21:48:23.289Z,9.43
2019-02-09T21:50:54.196Z,10.20
2019-02-09T21:53:24.108Z,8.53
2019-02-09T21:55:57.004Z,11.87
2019-02-09T21:58:27.290Z,9.70
2019-02-09T22:00:58.633Z,11.27
2019-02-09T22:03:30.130Z,11.63
2019-02-09T22:06:03.529Z,10.83
2019-02-09T22:08:33.390Z,11.70
2019-02-09T22:11:05.122Z,11.03
2019-02-09T22:13:37.007Z,11.33
2019-02-09T22:16:08.606Z,11.60
2019-02-09T22:18:39.173Z,11.20
2019-02-09T22:21:11.373Z,12.00
2019-02-09T22:23:42.652Z,11.03
2019-02-09T22:26:13.486Z,10.03
2019-02-09T22:28:44.255Z,11.20
2019-02-09T22:31:21.720Z,12.13
2019-02-09T22:33:45.700Z,12.10
2019-02-09T22:36:15.772Z,12.53
2019-02-09T22:38:45.222Z,13.07
2019-02-09T22:41:16.022Z,13.40
2019-02-09T22:43:46.780Z,19.50
2019-02-09T22:46:17.225Z,23.23
2019-02-09T22:48:48.358Z,18.20
2019-02-09T22:51:21.534Z,17.50
2019-02-09T22:53:52.043Z,17.03
2019-02-09T22:56:22.113Z,16.60
2019-02-09T22:58:52.439Z,18.47
2019-02-09T23:01:54.964Z,18.30
2019-02-09T23:04:47.507Z,18.63
2019-02-09T23:07:26.354Z,16.50
2019-02-09T23:09:57.334Z,22.17
2019-02-09T23:12:28.822Z,15.37
2019-02-09T23:14:58.266Z,16.27
2019-02-09T23:17:28.262Z,15.60
2019-02-09T23:19:57.287Z,15.30
2019-02-09T23:22:27.644Z,15.13
2019-02-09T23:24:58.244Z,16.30
2019-02-09T23:27:28.232Z,14.80
2019-02-09T23:29:58.136Z,17.33
2019-02-09T23:32:29.755Z,18.13
2019-02-09T23:34:59.975Z,18.13
2019-02-09T23:37:32.835Z,21.97
2019-02-09T23:40:05.214Z,19.80
2019-02-09T23:42:36.236Z,18.70
2019-02-09T23:45:07.014Z,20.27
2019-02-09T23:47:37.314Z,18.70
2019-02-09T23:50:09.012Z,17.83
2019-02-09T23:52:38.752Z,17.10
2019-02-09T23:55:09.096Z,18.70
2019-02-09T23:57:38.564Z,29.97
